Time;durP1;ratioP1;P1;durP2;ratioP2;P2;SDS_P1;SDS_P2;PMS_P1;PMS_P2;Temp;Humidity;BMP_temperature;BMP_pressure;BME280_temperature;BME280_humidity;BME280_pressure;Samples;Min_cycle;Max_cycle;Signal;HPM_P1;HPM_P2
2022/08/08 00:00:10;;;;;;;;;2.00;2.00;;;;;24.02;33.61;101800.41;5052971;28;45350;-69
2022/08/08 00:03:04;;;;;;;;;4.33;2.33;;;;;23.99;33.98;101804.97;5053945;28;46662;-68
2022/08/08 00:05:36;;;;;;;;;3.67;2.00;;;;;23.96;34.23;101795.28;5049010;28;45562;-68
2022/08/08 00:08:23;;;;;;;;;3.00;3.00;;;;;23.86;35.06;101793.88;5053172;28;45616;-72
2022/08/08 00:11:05;;;;;;;;;3.00;3.00;;;;;23.75;34.60;101793.38;5043832;28;45375;-71
2022/08/08 00:14:05;;;;;;;;;2.00;2.00;;;;;23.69;34.58;101792.66;5053850;28;46327;-71
2022/08/08 00:16:50;;;;;;;;;2.00;2.00;;;;;23.71;34.85;101789.94;5032796;28;45966;-70
2022/08/08 00:19:57;;;;;;;;;2.33;2.33;;;;;23.75;34.95;101786.22;5058378;28;45410;-69
2022/08/08 00:22:50;;;;;;;;;2.33;2.33;;;;;23.57;34.74;101760.16;5052795;28;46492;-69
2022/08/08 00:25:31;;;;;;;;;1.67;1.67;;;;;23.73;35.00;101792.53;5035575;28;45941;-72
2022/08/08 00:28:02;;;;;;;;;2.00;2.00;;;;;23.76;34.92;101790.66;5053110;28;45731;-70
2022/08/08 00:30:40;;;;;;;;;3.33;2.00;;;;;23.76;34.80;101789.81;5032299;28;46224;-71
2022/08/08 00:33:23;;;;;;;;;2.00;2.00;;;;;23.75;35.17;101782.69;5053218;28;45517;-71
2022/08/08 00:35:53;;;;;;;;;4.33;4.00;;;;;23.75;35.23;101785.34;5050416;28;46589;-71
2022/08/08 00:38:45;;;;;;;;;5.33;4.00;;;;;23.61;35.11;101769.78;5053409;28;45566;-70
2022/08/08 00:41:32;;;;;;;;;5.00;3.00;;;;;23.69;35.55;101781.94;5035492;28;45576;-68
2022/08/08 00:44:33;;;;;;;;;3.67;3.00;;;;;23.67;35.42;101783.81;5052391;28;45348;-69
2022/08/08 00:47:25;;;;;;;;;2.00;2.00;;;;;23.64;35.62;101778.56;5012445;28;47180;-71
2022/08/08 00:50:21;;;;;;;;;4.00;3.00;;;;;23.56;36.02;101775.28;5049673;28;46560;-70
2022/08/08 00:52:55;;;;;;;;;3.33;2.00;;;;;23.61;35.61;101780.47;5031518;28;45367;-69
2022/08/08 00:56:04;;;;;;;;;2.00;2.00;;;;;23.56;35.56;101780.63;5030210;28;46021;-70
2022/08/08 00:58:59;;;;;;;;;2.00;2.00;;;;;23.49;35.83;101780.00;5012798;28;46321;-68
2022/08/08 01:02:02;;;;;;;;;3.00;3.00;;;;;23.50;36.20;101787.09;5046604;28;45474;-69
2022/08/08 01:04:43;;;;;;;;;3.00;3.00;;;;;23.49;35.89;101774.66;5047416;28;45434;-69
2022/08/08 01:07:42;;;;;;;;;3.00;3.00;;;;;23.48;36.12;101780.91;5051081;28;45798;-70
2022/08/08 01:10:38;;;;;;;;;2.67;2.67;;;;;23.39;36.04;101769.69;5046632;28;46921;-68
2022/08/08 01:13:51;;;;;;;;;2.00;2.00;;;;;23.43;36.22;101782.03;5037164;28;45494;-69
2022/08/08 01:16:44;;;;;;;;;6.67;6.67;;;;;23.34;36.44;101769.84;5054470;28;45786;-69
2022/08/08 01:19:47;;;;;;;;;10.00;8.00;;;;;23.35;36.65;101776.06;5052138;28;45637;-67
2022/08/08 01:22:49;;;;;;;;;6.00;6.00;;;;;23.28;36.58;101780.75;5054470;28;45798;-71
2022/08/08 01:26:01;;;;;;;;;4.00;4.00;;;;;23.22;36.93;101765.78;5050497;28;45422;-69
2022/08/08 01:28:57;;;;;;;;;5.00;4.33;;;;;23.19;36.73;101767.72;5049507;28;45391;-67
2022/08/08 01:31:50;;;;;;;;;3.00;3.00;;;;;23.13;36.68;101770.59;5054362;28;45645;-67
2022/08/08 01:34:54;;;;;;;;;2.67;2.67;;;;;23.08;36.91;101757.38;5053979;28;46601;-68
2022/08/08 01:37:57;;;;;;;;;3.00;3.00;;;;;23.14;37.04;101773.22;5052964;28;45614;-68
2022/08/08 01:40:41;;;;;;;;;3.00;3.00;;;;;23.12;37.01;101775.06;5051111;28;45486;-69
2022/08/08 01:43:09;;;;;;;;;3.00;3.00;;;;;23.12;37.30;101768.84;5054507;28;45633;-68
2022/08/08 01:45:59;;;;;;;;;3.00;3.00;;;;;23.10;37.04;101776.91;5054396;28;46572;-69
2022/08/08 01:49:00;;;;;;;;;3.00;3.00;;;;;23.08;37.17;101771.59;5054807;28;45573;-70
2022/08/08 01:52:01;;;;;;;;;3.00;3.00;;;;;23.08;37.26;101771.59;5056132;28;45454;-69
2022/08/08 01:54:52;;;;;;;;;3.00;3.00;;;;;23.05;37.19;101770.84;5049132;28;45433;-69
2022/08/08 01:57:40;;;;;;;;;2.33;2.33;;;;;23.04;37.25;101769.97;5054464;28;45563;-67
2022/08/08 02:00:36;;;;;;;;;3.33;3.00;;;;;23.02;37.37;101770.97;5057982;28;45283;-67
2022/08/08 02:03:29;;;;;;;;;5.00;4.00;;;;;23.02;37.23;101768.28;5032793;28;45375;-67
2022/08/08 02:06:32;;;;;;;;;3.67;3.67;;;;;23.00;37.29;101776.34;5054829;28;45457;-69
2022/08/08 02:09:23;;;;;;;;;2.00;2.00;;;;;22.87;37.36;101745.56;5036205;28;47886;-68
2022/08/08 02:11:50;;;;;;;;;2.33;2.33;;;;;22.93;37.46;101761.41;5035753;28;45513;-69
2022/08/08 02:14:45;;;;;;;;;4.67;3.00;;;;;22.93;37.65;101768.56;5057924;28;45734;-69
2022/08/08 02:17:21;;;;;;;;;2.00;2.00;;;;;22.90;37.92;101768.63;5058667;28;45360;-71
2022/08/08 02:20:04;;;;;;;;;2.67;2.67;;;;;22.85;37.84;101772.34;5037420;28;45825;-69
2022/08/08 02:22:44;;;;;;;;;2.33;2.33;;;;;22.83;37.90;101766.19;5041016;28;45644;-67
2022/08/08 02:25:17;;;;;;;;;2.67;2.67;;;;;22.82;38.05;101769.75;5053834;28;45496;-67
2022/08/08 02:27:47;;;;;;;;;4.00;3.00;;;;;22.80;38.01;101763.63;5054902;28;45486;-70
2022/08/08 02:30:39;;;;;;;;;5.00;5.00;;;;;22.75;38.16;101757.53;5054192;28;45486;-68
2022/08/08 02:33:26;;;;;;;;;3.00;3.00;;;;;22.78;38.04;101768.13;5055036;28;45347;-69
2022/08/08 02:35:55;;;;;;;;;4.33;2.67;;;;;22.77;38.20;101774.38;5055898;28;45516;-71
2022/08/08 02:38:32;;;;;;;;;4.00;4.00;;;;;22.76;38.40;101763.78;5056371;28;45706;-68
2022/08/08 02:41:35;;;;;;;;;3.33;3.00;;;;;22.74;38.23;101769.16;5058276;28;46724;-70
2022/08/08 02:44:38;;;;;;;;;3.00;3.00;;;;;22.73;38.33;101764.75;5057424;28;45398;-68
2022/08/08 02:47:19;;;;;;;;;4.00;3.00;;;;;22.69;38.51;101764.91;5057271;28;45503;-70
2022/08/08 02:49:50;;;;;;;;;3.33;3.00;;;;;22.68;38.42;101766.66;5061301;28;45346;-70
2022/08/08 02:52:47;;;;;;;;;3.67;3.00;;;;;22.56;38.72;101754.59;5053858;28;46039;-70
2022/08/08 02:55:18;;;;;;;;;3.33;3.33;;;;;22.62;38.53;101769.56;5037913;28;45639;-70
2022/08/08 02:58:18;;;;;;;;;3.67;3.67;;;;;22.60;38.64;101766.06;5057638;28;45365;-69
2022/08/08 03:01:29;;;;;;;;;3.00;3.00;;;;;22.42;38.79;101747.03;5057674;28;45391;-69
2022/08/08 03:04:33;;;;;;;;;4.33;2.67;;;;;22.54;38.69;101766.25;5057342;28;46243;-69
2022/08/08 03:07:20;;;;;;;;;4.67;3.00;;;;;22.55;38.83;101770.66;5054190;28;45353;-68
2022/08/08 03:10:30;;;;;;;;;3.33;3.33;;;;;22.52;38.85;101762.75;5054844;28;45451;-67
2022/08/08 03:13:34;;;;;;;;;3.33;3.00;;;;;22.49;38.95;101765.50;5054076;28;45489;-69
2022/08/08 03:16:22;;;;;;;;;5.00;3.33;;;;;22.46;39.00;101770.97;5005678;28;46253;-68
2022/08/08 03:19:18;;;;;;;;;4.67;4.00;;;;;22.40;38.86;101777.34;5039470;28;45339;-68
2022/08/08 03:21:44;;;;;;;;;4.00;4.00;;;;;22.38;39.12;101769.41;5042039;28;45422;-68
2022/08/08 03:24:09;;;;;;;;;3.67;3.67;;;;;22.36;39.20;101778.38;5056801;28;45454;-69
2022/08/08 03:26:51;;;;;;;;;4.67;4.67;;;;;22.25;39.23;101762.69;5056462;28;46398;-67
2022/08/08 03:29:22;;;;;;;;;4.33;3.67;;;;;22.37;39.64;101778.31;5038371;28;45564;-70
2022/08/08 03:34:34;;;;;;;;;4.00;4.00;;;;;22.30;39.48;101781.22;5056967;28;45371;-69
2022/08/08 03:37:00;;;;;;;;;5.33;5.00;;;;;22.29;39.48;101772.34;5056568;28;45415;-67
2022/08/08 03:39:25;;;;;;;;;4.00;4.00;;;;;22.14;39.45;101759.41;5057357;28;45464;-69
2022/08/08 03:41:52;;;;;;;;;4.67;4.67;;;;;22.28;39.60;101780.38;5057093;28;45407;-69
2022/08/08 03:44:17;;;;;;;;;4.00;4.00;;;;;22.28;39.71;101781.28;5058663;28;45510;-71
2022/08/08 03:46:48;;;;;;;;;5.00;5.00;;;;;22.21;39.74;101777.94;5057946;28;45602;-69
2022/08/08 03:49:22;;;;;;;;;4.67;4.67;;;;;22.20;39.86;101773.50;5059720;28;45339;-70
2022/08/08 03:51:53;;;;;;;;;4.67;4.67;;;;;22.19;39.84;101787.72;5056925;28;45520;-68
2022/08/08 03:54:19;;;;;;;;;6.67;5.33;;;;;22.18;39.91;101785.09;5060351;28;45423;-67
2022/08/08 03:56:45;;;;;;;;;4.67;4.67;;;;;22.16;39.76;101794.94;5060787;28;46315;-69
2022/08/08 03:59:11;;;;;;;;;4.00;4.00;;;;;22.15;39.92;101793.22;5058944;28;45493;-69
2022/08/08 04:01:38;;;;;;;;;3.33;3.33;;;;;22.03;40.04;101776.63;5055929;28;45507;-69
2022/08/08 04:04:04;;;;;;;;;2.67;2.67;;;;;22.12;39.94;101795.97;5056629;28;45504;-69
2022/08/08 04:06:30;;;;;;;;;5.67;5.00;;;;;22.11;40.04;101799.53;5056393;28;46057;-69
2022/08/08 04:08:59;;;;;;;;;4.00;4.00;;;;;22.08;39.99;101794.31;5056293;28;45525;-68
2022/08/08 04:11:25;;;;;;;;;4.00;3.67;;;;;22.03;40.35;101792.63;5056091;28;45816;-67
2022/08/08 04:13:51;;;;;;;;;4.00;3.67;;;;;22.06;40.14;101793.47;5057116;28;45531;-68
2022/08/08 04:16:17;;;;;;;;;5.00;4.67;;;;;21.98;40.27;101780.38;5057544;28;45318;-70
2022/08/08 04:18:43;;;;;;;;;5.00;5.00;;;;;21.93;40.14;101777.81;5055520;28;45469;-69
2022/08/08 04:21:08;;;;;;;;;5.33;5.00;;;;;21.97;40.18;101791.94;5056086;28;45706;-70
2022/08/08 04:23:34;;;;;;;;;5.00;5.00;;;;;21.81;40.37;101768.38;5055881;28;45532;-70
2022/08/08 04:26:00;;;;;;;;;4.00;4.00;;;;;21.96;40.23;101792.88;5036942;28;47864;-69
2022/08/08 04:28:25;;;;;;;;;6.67;5.00;;;;;22.00;40.51;101808.75;5038011;28;45418;-68
2022/08/08 04:30:51;;;;;;;;;4.00;3.33;;;;;21.95;40.30;101800.00;5039737;28;45372;-70
2022/08/08 04:33:16;;;;;;;;;4.33;4.33;;;;;21.89;40.32;101788.63;5057070;28;45693;-68
2022/08/08 04:35:42;;;;;;;;;4.00;4.00;;;;;21.96;40.62;101798.19;5055245;28;45482;-70
2022/08/08 04:38:08;;;;;;;;;6.00;6.00;;;;;21.79;40.70;101777.34;5056363;28;45578;-67
2022/08/08 04:40:33;;;;;;;;;7.00;5.00;;;;;21.88;40.60;101806.44;5059062;28;45350;-70
2022/08/08 04:42:59;;;;;;;;;5.00;4.67;;;;;21.86;40.85;101800.25;5055801;28;45435;-68
2022/08/08 04:45:25;;;;;;;;;4.00;4.00;;;;;21.81;40.83;101804.84;5055764;28;45301;-67
2022/08/08 04:47:51;;;;;;;;;5.00;5.00;;;;;21.80;41.00;101806.63;5055493;28;45486;-69
2022/08/08 04:50:16;;;;;;;;;6.67;5.00;;;;;21.78;41.06;101821.81;5055574;28;45418;-70
2022/08/08 04:52:42;;;;;;;;;5.33;5.00;;;;;21.75;41.01;101813.88;5054998;28;45446;-69
2022/08/08 04:55:07;;;;;;;;;7.67;6.00;;;;;21.68;41.10;101809.63;5058507;28;46035;-69
2022/08/08 04:57:33;;;;;;;;;4.33;4.33;;;;;21.71;41.03;101816.66;5055382;28;46086;-70
2022/08/08 04:59:59;;;;;;;;;6.00;4.67;;;;;21.69;41.28;101816.72;5055793;28;45475;-67
2022/08/08 05:02:25;;;;;;;;;6.33;4.67;;;;;21.55;40.99;101800.22;5056082;28;45677;-69
2022/08/08 05:04:50;;;;;;;;;4.33;4.33;;;;;21.71;41.31;101822.00;5055348;28;46027;-69
2022/08/08 05:07:16;;;;;;;;;5.00;5.00;;;;;21.69;41.29;101808.72;5054715;28;45380;-69
2022/08/08 05:09:42;;;;;;;;;5.00;4.00;;;;;21.66;41.47;101814.13;5055717;28;45363;-67
2022/08/08 05:12:08;;;;;;;;;6.00;5.00;;;;;21.71;41.49;101830.91;5055504;28;45451;-68
2022/08/08 05:14:33;;;;;;;;;4.67;4.67;;;;;21.60;41.33;101812.50;5056780;28;45304;-68
2022/08/08 05:16:59;;;;;;;;;7.00;5.00;;;;;21.57;41.41;101809.06;5056616;28;45360;-68
2022/08/08 05:19:24;;;;;;;;;6.33;4.67;;;;;21.68;41.30;101833.63;5055486;28;45387;-70
2022/08/08 05:21:54;;;;;;;;;5.67;5.67;;;;;21.69;41.26;101829.16;5055843;28;45591;-70
2022/08/08 05:24:20;;;;;;;;;5.67;5.33;;;;;21.67;41.50;101823.88;5054852;28;46141;-67
2022/08/08 05:26:45;;;;;;;;;5.00;5.00;;;;;21.69;41.32;101827.38;5054445;28;45448;-67
2022/08/08 05:29:12;;;;;;;;;6.67;4.00;;;;;21.72;41.30;101831.75;5050024;28;45522;-68
2022/08/08 05:31:38;;;;;;;;;4.00;4.00;;;;;21.62;41.20;101816.91;5047236;28;45407;-68
2022/08/08 05:34:06;;;;;;;;;5.00;5.00;;;;;21.69;41.09;101818.50;5054173;28;45842;-68
2022/08/08 05:36:34;;;;;;;;;4.67;4.67;;;;;21.85;41.41;101837.63;5053598;28;45554;-68
2022/08/08 05:39:04;;;;;;;;;3.67;3.67;;;;;21.82;41.01;101830.59;5054487;28;45329;-69
2022/08/08 05:41:34;;;;;;;;;6.67;5.00;;;;;21.94;41.10;101835.56;5054794;28;45376;-68
2022/08/08 05:44:06;;;;;;;;;5.00;5.00;;;;;21.97;40.96;101843.50;5036132;28;46358;-68
2022/08/08 05:46:32;;;;;;;;;6.00;6.00;;;;;22.00;41.04;101846.09;5054150;28;45359;-68
2022/08/08 05:48:59;;;;;;;;;7.33;5.33;;;;;21.96;40.87;101822.22;5053943;28;45658;-70
2022/08/08 05:51:26;;;;;;;;;6.33;4.33;;;;;22.13;40.62;101843.94;5054897;28;45533;-67
2022/08/08 05:53:52;;;;;;;;;6.00;4.67;;;;;22.21;40.78;101851.78;5054014;28;46155;-67
2022/08/08 05:56:19;;;;;;;;;2.33;2.33;;;;;22.30;40.76;101845.28;5055939;28;45431;-72
2022/08/08 05:58:52;;;;;;;;;5.67;5.67;;;;;22.35;40.89;101833.56;5058822;28;45255;-68
2022/08/08 06:01:21;;;;;;;;;5.00;5.00;;;;;22.54;40.63;101838.31;5058612;28;45400;-67
2022/08/08 06:03:49;;;;;;;;;7.00;7.00;;;;;22.76;40.36;101849.25;5054056;28;46091;-74
2022/08/08 06:06:15;;;;;;;;;6.00;6.00;;;;;22.85;39.83;101847.16;5054939;28;45524;-69
2022/08/08 06:08:51;;;;;;;;;4.67;4.67;;;;;22.92;39.66;101842.50;5054078;28;45509;-70
2022/08/08 06:11:18;;;;;;;;;6.67;6.67;;;;;23.06;39.56;101861.66;5057280;28;45375;-70
2022/08/08 06:13:46;;;;;;;;;10.00;6.00;;;;;22.95;39.68;101847.72;5055003;28;45394;-72
2022/08/08 06:16:12;;;;;;;;;6.00;5.67;;;;;23.17;39.47;101858.63;5055209;28;45410;-69
2022/08/08 06:18:40;;;;;;;;;7.00;6.33;;;;;23.13;39.11;101856.97;5057263;28;45411;-73
2022/08/08 06:21:08;;;;;;;;;7.33;6.00;;;;;23.33;39.23;101861.66;5054899;28;45428;-74
2022/08/08 06:23:34;;;;;;;;;6.00;5.00;;;;;23.32;38.79;101848.34;5052939;28;48020;-74
2022/08/08 06:26:08;;;;;;;;;7.00;6.67;;;;;23.57;38.62;101872.47;5054835;28;45689;-71
2022/08/08 06:28:43;;;;;;;;;5.67;5.00;;;;;23.60;38.31;101867.00;5054241;28;45438;-75
2022/08/08 06:31:10;;;;;;;;;8.00;6.00;;;;;23.68;38.36;101870.25;5055094;28;45450;-73
2022/08/08 06:33:44;;;;;;;;;7.00;6.00;;;;;23.70;38.29;101876.44;5055154;28;45664;-76
2022/08/08 06:36:10;;;;;;;;;7.00;6.67;;;;;23.76;38.30;101875.41;5037418;28;45819;-71
2022/08/08 06:38:45;;;;;;;;;6.00;6.00;;;;;23.82;37.97;101878.72;5056516;28;45590;-71
2022/08/08 06:41:16;;;;;;;;;7.67;6.33;;;;;23.97;37.88;101879.97;5053865;28;45767;-72
2022/08/08 06:43:46;;;;;;;;;9.00;7.00;;;;;23.91;37.47;101859.66;5056036;28;45357;-75
2022/08/08 06:46:13;;;;;;;;;9.00;6.00;;;;;24.11;37.74;101877.69;5055132;28;45481;-74
2022/08/08 06:48:38;;;;;;;;;6.33;5.67;;;;;24.19;37.26;101871.16;5058936;28;45358;-74
2022/08/08 06:51:04;;;;;;;;;6.00;6.00;;;;;24.24;37.12;101874.53;5057588;28;45388;-74
2022/08/08 06:53:31;;;;;;;;;6.67;6.67;;;;;24.38;36.90;101882.06;5053879;28;45370;-69
2022/08/08 06:55:58;;;;;;;;;5.67;5.67;;;;;24.31;37.15;101868.91;5055491;28;45228;-74
2022/08/08 06:58:23;;;;;;;;;7.00;6.33;;;;;24.52;37.18;101886.00;5056816;28;45493;-71
2022/08/08 07:00:50;;;;;;;;;4.00;4.00;;;;;24.60;36.87;101883.00;5055706;28;45771;-73
2022/08/08 07:03:36;;;;;;;;;6.00;5.33;;;;;24.66;36.59;101888.16;5055899;28;46090;-69
2022/08/08 07:06:07;;;;;;;;;5.33;5.33;;;;;24.74;36.64;101890.53;5056061;28;45553;-70
2022/08/08 07:08:37;;;;;;;;;6.00;3.67;;;;;24.73;36.21;101872.72;5054333;28;45618;-72
2022/08/08 07:11:04;;;;;;;;;8.00;6.00;;;;;24.81;36.60;101883.97;5052637;28;45557;-75
2022/08/08 07:13:43;;;;;;;;;7.33;5.00;;;;;24.78;36.45;101875.22;5053731;28;46501;-68
2022/08/08 07:16:49;;;;;;;;;9.33;4.67;;;;;24.92;36.23;101892.47;5054214;28;45307;-72
2022/08/08 07:19:40;;;;;;;;;5.67;5.67;;;;;24.96;35.86;101890.53;5055820;28;45568;-72
2022/08/08 07:22:07;;;;;;;;;5.00;5.00;;;;;24.89;36.24;101897.06;5053234;28;45505;-71
2022/08/08 07:24:57;;;;;;;;;8.00;7.67;;;;;24.73;36.31;101862.88;5057753;28;45312;-70
2022/08/08 07:27:25;;;;;;;;;6.67;5.33;;;;;25.01;36.03;101909.09;5054647;28;45455;-68
2022/08/08 07:29:51;;;;;;;;;6.67;6.67;;;;;25.06;35.89;101901.78;5052429;28;45403;-67
2022/08/08 07:32:18;;;;;;;;;7.33;6.33;;;;;25.03;36.32;101901.88;5053778;28;45331;-66
2022/08/08 07:34:44;;;;;;;;;7.00;7.00;;;;;25.07;35.94;101914.25;5052671;28;45391;-69
2022/08/08 07:37:11;;;;;;;;;9.33;6.33;;;;;24.97;36.62;101914.59;5052482;28;45397;-68
2022/08/08 07:39:40;;;;;;;;;5.00;5.00;;;;;24.81;36.39;101900.06;5054045;28;45451;-71
2022/08/08 07:42:10;;;;;;;;;4.67;4.67;;;;;24.91;36.01;101898.75;5039924;28;45568;-70
2022/08/08 07:44:37;;;;;;;;;5.67;5.00;;;;;25.01;35.99;101893.03;5036444;28;47466;-69
2022/08/08 07:47:03;;;;;;;;;5.33;5.00;;;;;25.22;35.94;101913.63;5052934;28;45777;-69
2022/08/08 07:49:28;;;;;;;;;8.00;6.33;;;;;25.23;35.84;101909.19;5052897;28;45489;-68
2022/08/08 07:51:55;;;;;;;;;6.67;6.67;;;;;25.15;35.96;101896.91;5052640;28;45326;-68
2022/08/08 07:54:33;;;;;;;;;8.33;8.33;;;;;25.01;36.03;101901.06;5052957;28;45959;-67
2022/08/08 07:57:06;;;;;;;;;9.67;6.00;;;;;25.05;35.86;101908.06;5051611;28;45505;-67
2022/08/08 07:59:45;;;;;;;;;8.33;6.67;;;;;25.22;35.84;101916.31;5052829;28;45438;-71
2022/08/08 08:02:16;;;;;;;;;7.00;5.00;;;;;25.37;35.68;101922.88;5056400;28;45326;-69
2022/08/08 08:04:45;;;;;;;;;6.00;6.00;;;;;25.23;35.46;101891.28;5060210;28;45352;-70
2022/08/08 08:07:15;;;;;;;;;5.33;5.33;;;;;25.30;35.19;101894.56;5040420;28;45513;-71
2022/08/08 08:09:41;;;;;;;;;7.00;7.00;;;;;25.42;35.48;101915.50;5056103;28;45428;-68
2022/08/08 08:12:11;;;;;;;;;9.00;6.33;;;;;25.52;34.75;101911.50;5055978;28;45608;-71
2022/08/08 08:15:02;;;;;;;;;6.67;6.00;;;;;25.54;35.18;101906.09;5037413;28;47798;-71
2022/08/08 08:17:32;;;;;;;;;6.33;6.00;;;;;25.65;35.11;101916.34;5056093;28;45580;-68
2022/08/08 08:20:03;;;;;;;;;5.00;5.00;;;;;25.54;34.61;101881.94;5055820;28;45516;-68
2022/08/08 08:22:29;;;;;;;;;7.00;5.00;;;;;25.70;34.70;101903.59;5056607;28;45641;-72
2022/08/08 08:24:54;;;;;;;;;5.00;5.00;;;;;25.74;34.73;101900.72;5056581;28;45446;-70
2022/08/08 08:27:20;;;;;;;;;5.00;5.00;;;;;25.87;33.97;101913.66;5059191;28;45423;-70
2022/08/08 08:29:49;;;;;;;;;7.00;7.00;;;;;25.81;34.42;101920.97;5055823;28;45952;-74
2022/08/08 08:32:14;;;;;;;;;4.67;4.67;;;;;25.87;34.44;101910.97;5055494;28;45430;-71
2022/08/08 08:34:40;;;;;;;;;5.33;5.00;;;;;25.91;34.19;101910.78;5055536;28;45359;-69
2022/08/08 08:37:06;;;;;;;;;3.33;3.33;;;;;25.99;33.69;101908.63;5058057;28;45531;-69
2022/08/08 08:39:31;;;;;;;;;6.00;6.00;;;;;26.07;33.48;101918.13;5056084;28;45542;-68
2022/08/08 08:41:57;;;;;;;;;5.00;5.00;;;;;26.12;33.61;101918.81;5055521;28;45440;-68
2022/08/08 08:44:26;;;;;;;;;4.33;4.33;;;;;26.16;33.53;101915.06;5055300;28;46076;-70
2022/08/08 08:46:54;;;;;;;;;5.67;5.67;;;;;26.10;33.88;101915.31;5055687;28;45494;-67
2022/08/08 08:49:20;;;;;;;;;7.00;4.00;;;;;26.11;33.27;101893.78;5057623;28;45676;-68
2022/08/08 08:51:48;;;;;;;;;6.00;6.00;;;;;26.12;32.62;101916.97;5038755;28;45398;-68
2022/08/08 08:54:16;;;;;;;;;4.33;4.33;;;;;25.94;32.98;101893.66;5054828;28;45422;-67
2022/08/08 08:56:42;;;;;;;;;6.00;6.00;;;;;26.01;33.45;101887.94;5058589;28;45556;-67
2022/08/08 08:59:14;;;;;;;;;4.00;4.00;;;;;26.08;33.13;101899.28;5055135;28;45455;-67
2022/08/08 09:01:43;;;;;;;;;8.33;7.00;;;;;26.12;33.39;101916.97;5053872;28;45456;-67
2022/08/08 09:04:12;;;;;;;;;7.00;7.00;;;;;25.99;32.86;101916.66;5053823;28;46142;-68
2022/08/08 09:06:40;;;;;;;;;6.00;6.00;;;;;25.79;32.80;101908.56;5047102;28;45350;-71
2022/08/08 09:09:14;;;;;;;;;6.67;6.33;;;;;25.44;32.96;101888.59;5055025;28;45505;-70
2022/08/08 09:11:44;;;;;;;;;6.00;5.00;;;;;25.55;33.30;101897.09;5055467;28;45407;-68
2022/08/08 09:14:10;;;;;;;;;4.33;4.33;;;;;25.66;33.04;101896.63;5055186;28;46027;-69
2022/08/08 09:16:37;;;;;;;;;7.33;6.33;;;;;25.66;33.53;101891.28;5049018;28;45293;-73
2022/08/08 09:19:04;;;;;;;;;5.67;4.67;;;;;25.89;33.48;101914.44;5046975;28;45494;-68
2022/08/08 09:21:30;;;;;;;;;5.33;4.00;;;;;25.92;33.00;101895.53;5055434;28;45653;-71
2022/08/08 09:23:57;;;;;;;;;7.33;7.00;;;;;25.93;32.26;101908.00;5057971;28;45580;-69
2022/08/08 09:26:44;;;;;;;;;6.33;6.00;;;;;25.92;32.47;101906.28;5054839;28;45514;-70
2022/08/08 09:29:21;;;;;;;;;7.67;6.00;;;;;25.90;32.54;101905.47;5054310;28;45627;-72
2022/08/08 09:31:59;;;;;;;;;6.00;5.00;;;;;26.02;33.40;101910.28;5055273;28;45554;-70
2022/08/08 09:34:29;;;;;;;;;6.00;5.00;;;;;26.08;33.82;101904.66;5058737;28;46112;-69
2022/08/08 09:37:02;;;;;;;;;4.00;4.00;;;;;26.07;31.51;101896.66;5058719;28;45481;-68
2022/08/08 09:39:34;;;;;;;;;5.67;5.67;;;;;25.96;32.15;101889.06;5056028;28;45339;-68
2022/08/08 09:42:02;;;;;;;;;7.00;6.00;;;;;26.13;32.10;101904.47;5054781;28;45737;-65
2022/08/08 09:44:46;;;;;;;;;6.33;6.33;;;;;26.13;32.34;101897.28;5056640;28;45727;-71
2022/08/08 09:47:13;;;;;;;;;5.00;5.00;;;;;26.10;31.95;101896.50;5058273;28;45287;-67
2022/08/08 09:49:43;;;;;;;;;5.00;5.00;;;;;26.14;33.29;101901.69;5056185;28;45446;-69
2022/08/08 09:52:08;;;;;;;;;10.00;8.33;;;;;26.21;32.46;101899.59;5053977;28;45281;-68
2022/08/08 09:54:42;;;;;;;;;5.67;5.67;;;;;26.14;32.28;101896.31;5053788;28;46328;-71
2022/08/08 09:57:17;;;;;;;;;6.33;5.33;;;;;26.20;33.62;101896.06;5053680;28;45517;-70
2022/08/08 09:59:48;;;;;;;;;6.00;6.00;;;;;26.22;32.90;101896.84;5047846;28;45365;-69
2022/08/08 10:02:25;;;;;;;;;5.33;5.33;;;;;26.36;32.29;101898.03;5058402;28;45505;-69
2022/08/08 10:04:51;;;;;;;;;5.33;5.33;;;;;26.42;32.79;101885.19;5057942;28;46292;-67
2022/08/08 10:07:17;;;;;;;;;6.00;5.00;;;;;26.45;32.26;101889.53;5054494;28;45442;-67
2022/08/08 10:09:48;;;;;;;;;5.25;5.00;;;;;26.54;32.19;101880.22;5036944;28;45748;-68
2022/08/08 10:12:15;;;;;;;;;5.50;5.50;;;;;26.67;32.31;101876.00;5036136;28;45310;-68
2022/08/08 10:14:40;;;;;;;;;7.00;7.00;;;;;26.72;31.72;101894.59;5054581;28;46221;-69
2022/08/08 10:17:08;;;;;;;;;5.25;5.25;;;;;26.74;31.88;101885.53;5053963;28;45485;-68
2022/08/08 10:19:40;;;;;;;;;5.50;4.75;;;;;26.82;31.17;101871.72;5054240;28;45429;-67
2022/08/08 10:22:06;;;;;;;;;6.00;6.00;;;;;26.75;31.25;101873.81;5054281;28;45545;-66
2022/08/08 10:24:33;;;;;;;;;7.75;6.75;;;;;26.74;31.32;101864.03;5053525;28;46587;-66
2022/08/08 10:27:03;;;;;;;;;6.33;6.00;;;;;26.91;31.66;101865.00;5053797;28;45674;-66
2022/08/08 10:29:39;;;;;;;;;5.75;5.75;;;;;27.03;31.75;101864.44;5034666;28;45407;-71
2022/08/08 10:34:58;;;;;;;;;6.00;5.75;;;;;27.29;31.68;101857.78;5035910;28;45355;-67
2022/08/08 10:37:27;;;;;;;;;6.50;4.75;;;;;27.49;31.52;101868.38;5043845;28;45581;-68
2022/08/08 10:39:56;;;;;;;;;4.00;4.00;;;;;27.54;30.69;101856.53;5051825;28;45345;-68
2022/08/08 10:42:23;;;;;;;;;4.25;4.25;;;;;27.68;30.71;101865.59;5048237;28;45462;-72
2022/08/08 10:44:57;;;;;;;;;5.00;5.00;;;;;27.78;29.99;101866.00;5056600;28;45461;-72
2022/08/08 10:47:23;;;;;;;;;4.75;4.75;;;;;27.88;29.84;101866.41;5034275;28;45452;-69
2022/08/08 10:50:00;;;;;;;;;7.75;6.25;;;;;27.83;29.83;101842.41;5054304;28;45537;-68
2022/08/08 10:52:27;;;;;;;;;4.00;4.00;;;;;28.03;29.40;101868.31;5048502;28;45593;-70
2022/08/08 10:55:01;;;;;;;;;4.50;4.25;;;;;28.08;28.88;101862.66;5038755;28;45585;-67
2022/08/08 10:57:27;;;;;;;;;4.00;4.00;;;;;28.15;28.76;101847.06;5034378;28;45825;-68
2022/08/08 10:59:58;;;;;;;;;5.00;5.00;;;;;28.28;29.21;101859.75;5033047;28;45564;-68
2022/08/08 11:02:31;;;;;;;;;4.25;4.25;;;;;28.39;28.87;101852.91;5034447;28;45628;-71
2022/08/08 11:04:58;;;;;;;;;5.75;5.75;;;;;28.40;28.66;101852.81;5034034;28;45437;-68
2022/08/08 11:07:28;;;;;;;;;5.25;5.25;;;;;28.39;28.84;101843.00;5051682;28;45557;-71
2022/08/08 11:09:55;;;;;;;;;5.50;5.50;;;;;28.53;28.41;101858.44;5050500;28;45454;-66
2022/08/08 11:12:20;;;;;;;;;6.00;6.00;;;;;28.52;27.94;101840.50;5051345;28;45431;-69
2022/08/08 11:14:52;;;;;;;;;6.00;6.00;;;;;28.57;27.73;101854.63;5048960;28;46042;-67
2022/08/08 11:17:23;;;;;;;;;5.50;5.50;;;;;28.53;27.93;101837.75;5044052;28;45473;-70
2022/08/08 11:19:51;;;;;;;;;5.00;4.00;;;;;28.72;27.96;101847.47;5036900;28;45556;-69
2022/08/08 11:22:23;;;;;;;;;5.00;5.00;;;;;28.75;27.38;101840.06;5052936;28;45431;-69
2022/08/08 11:24:50;;;;;;;;;7.00;5.50;;;;;28.85;27.59;101842.25;5042516;28;46487;-69
2022/08/08 11:27:17;;;;;;;;;5.00;5.00;;;;;28.99;27.37;101845.00;5034779;28;45487;-71
2022/08/08 11:29:47;;;;;;;;;5.75;5.00;;;;;29.07;25.14;101842.78;5034707;28;45396;-70
2022/08/08 11:32:13;;;;;;;;;8.00;6.00;;;;;28.86;25.42;101839.47;5036076;28;45719;-70
2022/08/08 11:34:43;;;;;;;;;9.00;9.00;;;;;28.91;25.71;101848.16;5041596;28;46224;-70
2022/08/08 11:37:09;;;;;;;;;7.75;5.75;;;;;28.98;26.12;101831.63;5056956;28;45370;-70
2022/08/08 11:39:36;;;;;;;;;4.75;4.75;;;;;29.04;25.66;101842.91;5059306;28;45393;-69
2022/08/08 11:42:02;;;;;;;;;6.25;6.00;;;;;28.97;25.49;101825.34;5055996;28;45253;-69
2022/08/08 11:44:29;;;;;;;;;4.75;4.75;;;;;29.10;25.90;101831.81;5025605;28;46495;-70
2022/08/08 11:46:56;;;;;;;;;5.00;5.00;;;;;29.22;25.79;101832.91;5046103;28;45715;-71
2022/08/08 11:49:24;;;;;;;;;5.00;5.00;;;;;29.27;25.77;101833.50;5056197;28;45622;-71
2022/08/08 11:51:52;;;;;;;;;5.00;5.00;;;;;29.30;25.95;101800.06;5056594;28;45568;-71
2022/08/08 11:54:32;;;;;;;;;5.00;5.00;;;;;29.44;25.65;101829.78;5056146;28;45497;-70
2022/08/08 11:57:27;;;;;;;;;6.50;5.00;;;;;29.53;25.81;101817.56;5056831;28;45405;-69
2022/08/08 12:00:00;;;;;;;;;5.25;5.25;;;;;29.51;25.14;101812.25;5055476;28;45575;-70
2022/08/08 12:02:28;;;;;;;;;6.25;6.00;;;;;29.47;25.41;101815.25;5056666;28;45701;-70